sensor_id;sensor_type;location;lat;lon;timestamp;temperature;humidity
37530;DHT22;23374;52.758;6.872;2023-09-12T00:01:33;20.90;99.90
37530;DHT22;23374;52.758;6.872;2023-09-12T00:03:53;20.90;99.90
37530;DHT22;23374;52.758;6.872;2023-09-12T00:06:14;20.90;99.90
37530;DHT22;23374;52.758;6.872;2023-09-12T00:08:34;20.80;99.90
37530;DHT22;23374;52.758;6.872;2023-09-12T00:11:03;20.80;99.90
37530;DHT22;23374;52.758;6.872;2023-09-12T00:13:24;20.80;99.90
37530;DHT22;23374;52.758;6.872;2023-09-12T00:15:44;20.90;99.90
37530;DHT22;23374;52.758;6.872;2023-09-12T00:18:04;20.90;99.90
37530;DHT22;23374;52.758;6.872;2023-09-12T00:20:25;20.90;99.90
37530;DHT22;23374;52.758;6.872;2023-09-12T00:22:46;20.90;99.90
37530;DHT22;23374;52.758;6.872;2023-09-12T00:25:06;21.00;99.90
37530;DHT22;23374;52.758;6.872;2023-09-12T00:27:27;21.00;99.90
37530;DHT22;23374;52.758;6.872;2023-09-12T00:29:47;21.00;99.90
37530;DHT22;23374;52.758;6.872;2023-09-12T00:32:07;21.00;99.90
37530;DHT22;23374;52.758;6.872;2023-09-12T00:34:27;20.90;99.90
37530;DHT22;23374;52.758;6.872;2023-09-12T00:36:48;20.90;99.90
37530;DHT22;23374;52.758;6.872;2023-09-12T00:39:08;21.00;99.90
37530;DHT22;23374;52.758;6.872;2023-09-12T00:41:28;21.00;99.90
37530;DHT22;23374;52.758;6.872;2023-09-12T00:43:48;21.00;99.90
37530;DHT22;23374;52.758;6.872;2023-09-12T00:46:09;21.00;99.90
37530;DHT22;23374;52.758;6.872;2023-09-12T00:48:29;21.00;99.90
37530;DHT22;23374;52.758;6.872;2023-09-12T00:50:51;21.00;99.90
37530;DHT22;23374;52.758;6.872;2023-09-12T00:53:14;20.90;99.90
37530;DHT22;23374;52.758;6.872;2023-09-12T00:55:37;20.90;99.90
37530;DHT22;23374;52.758;6.872;2023-09-12T00:58:00;20.80;99.90
37530;DHT22;23374;52.758;6.872;2023-09-12T01:00:22;20.80;99.90
37530;DHT22;23374;52.758;6.872;2023-09-12T01:02:45;20.70;1.00
37530;DHT22;23374;52.758;6.872;2023-09-12T01:05:08;20.70;1.00
37530;DHT22;23374;52.758;6.872;2023-09-12T01:07:28;20.70;1.00
37530;DHT22;23374;52.758;6.872;2023-09-12T01:09:49;20.70;1.00
37530;DHT22;23374;52.758;6.872;2023-09-12T01:12:10;20.70;1.00
37530;DHT22;23374;52.758;6.872;2023-09-12T01:14:34;20.70;1.00
37530;DHT22;23374;52.758;6.872;2023-09-12T01:16:56;20.70;1.00
37530;DHT22;23374;52.758;6.872;2023-09-12T01:19:18;20.70;1.00
37530;DHT22;23374;52.758;6.872;2023-09-12T01:26:48;20.70;1.00
37530;DHT22;23374;52.758;6.872;2023-09-12T01:29:11;20.70;1.00
37530;DHT22;23374;52.758;6.872;2023-09-12T01:31:34;20.70;1.00
37530;DHT22;23374;52.758;6.872;2023-09-12T01:33:56;20.60;1.00
37530;DHT22;23374;52.758;6.872;2023-09-12T01:36:17;20.50;1.00
37530;DHT22;23374;52.758;6.872;2023-09-12T01:38:38;20.50;1.00
37530;DHT22;23374;52.758;6.872;2023-09-12T01:40:58;20.50;1.00
37530;DHT22;23374;52.758;6.872;2023-09-12T01:43:23;20.50;1.00
37530;DHT22;23374;52.758;6.872;2023-09-12T01:45:50;20.50;1.00
37530;DHT22;23374;52.758;6.872;2023-09-12T01:48:13;20.50;1.00
37530;DHT22;23374;52.758;6.872;2023-09-12T01:50:38;20.50;1.00
37530;DHT22;23374;52.758;6.872;2023-09-12T01:52:59;20.50;1.00
37530;DHT22;23374;52.758;6.872;2023-09-12T01:55:21;20.40;99.90
37530;DHT22;23374;52.758;6.872;2023-09-12T01:57:42;20.40;1.00
37530;DHT22;23374;52.758;6.872;2023-09-12T02:00:05;20.40;1.00
37530;DHT22;23374;52.758;6.872;2023-09-12T02:02:26;20.30;1.00
37530;DHT22;23374;52.758;6.872;2023-09-12T02:08:23;20.30;1.00
37530;DHT22;23374;52.758;6.872;2023-09-12T02:10:44;20.20;1.00
37530;DHT22;23374;52.758;6.872;2023-09-12T02:13:04;20.20;1.00
37530;DHT22;23374;52.758;6.872;2023-09-12T02:15:24;20.10;1.00
37530;DHT22;23374;52.758;6.872;2023-09-12T02:17:45;20.10;1.00
37530;DHT22;23374;52.758;6.872;2023-09-12T02:20:09;20.20;1.00
37530;DHT22;23374;52.758;6.872;2023-09-12T02:22:29;20.20;1.00
37530;DHT22;23374;52.758;6.872;2023-09-12T02:24:50;20.20;1.00
37530;DHT22;23374;52.758;6.872;2023-09-12T02:27:11;20.20;1.00
37530;DHT22;23374;52.758;6.872;2023-09-12T02:29:31;20.20;1.00
37530;DHT22;23374;52.758;6.872;2023-09-12T02:31:56;20.20;1.00
37530;DHT22;23374;52.758;6.872;2023-09-12T02:34:16;20.20;1.00
37530;DHT22;23374;52.758;6.872;2023-09-12T02:36:36;20.10;1.00
37530;DHT22;23374;52.758;6.872;2023-09-12T02:38:56;20.20;1.00
37530;DHT22;23374;52.758;6.872;2023-09-12T02:41:16;20.20;1.00
37530;DHT22;23374;52.758;6.872;2023-09-12T02:43:37;20.20;1.00
37530;DHT22;23374;52.758;6.872;2023-09-12T02:45:57;20.20;1.00
37530;DHT22;23374;52.758;6.872;2023-09-12T02:48:17;20.20;1.00
37530;DHT22;23374;52.758;6.872;2023-09-12T02:50:38;20.20;1.00
37530;DHT22;23374;52.758;6.872;2023-09-12T02:52:59;20.20;1.00
37530;DHT22;23374;52.758;6.872;2023-09-12T02:55:19;20.20;1.00
37530;DHT22;23374;52.758;6.872;2023-09-12T02:57:39;20.20;1.00
37530;DHT22;23374;52.758;6.872;2023-09-12T03:00:00;20.10;1.00
37530;DHT22;23374;52.758;6.872;2023-09-12T03:02:20;20.10;1.00
37530;DHT22;23374;52.758;6.872;2023-09-12T03:04:40;20.10;1.00
37530;DHT22;23374;52.758;6.872;2023-09-12T03:07:01;20.10;1.00
37530;DHT22;23374;52.758;6.872;2023-09-12T03:09:21;20.10;1.00
37530;DHT22;23374;52.758;6.872;2023-09-12T03:11:42;20.10;1.00
37530;DHT22;23374;52.758;6.872;2023-09-12T03:14:03;20.10;1.00
37530;DHT22;23374;52.758;6.872;2023-09-12T03:16:23;20.10;1.00
37530;DHT22;23374;52.758;6.872;2023-09-12T03:18:44;20.10;1.00
37530;DHT22;23374;52.758;6.872;2023-09-12T03:21:05;20.10;1.00
37530;DHT22;23374;52.758;6.872;2023-09-12T03:23:25;20.10;1.00
37530;DHT22;23374;52.758;6.872;2023-09-12T03:25:45;20.10;1.00
37530;DHT22;23374;52.758;6.872;2023-09-12T03:28:07;20.10;1.00
37530;DHT22;23374;52.758;6.872;2023-09-12T03:30:27;20.10;1.00
37530;DHT22;23374;52.758;6.872;2023-09-12T03:32:48;20.10;1.00
37530;DHT22;23374;52.758;6.872;2023-09-12T03:35:08;20.00;1.00
37530;DHT22;23374;52.758;6.872;2023-09-12T03:37:28;20.00;1.00
37530;DHT22;23374;52.758;6.872;2023-09-12T03:39:49;20.00;1.00
37530;DHT22;23374;52.758;6.872;2023-09-12T03:42:09;19.90;1.00
37530;DHT22;23374;52.758;6.872;2023-09-12T03:44:30;19.90;1.00
37530;DHT22;23374;52.758;6.872;2023-09-12T03:46:50;19.80;1.00
37530;DHT22;23374;52.758;6.872;2023-09-12T03:49:10;19.80;1.00
37530;DHT22;23374;52.758;6.872;2023-09-12T03:51:30;19.80;1.00
37530;DHT22;23374;52.758;6.872;2023-09-12T03:53:51;19.80;1.00
37530;DHT22;23374;52.758;6.872;2023-09-12T03:56:11;19.80;1.00
37530;DHT22;23374;52.758;6.872;2023-09-12T03:58:33;19.70;1.00
37530;DHT22;23374;52.758;6.872;2023-09-12T04:00:53;19.70;1.00
37530;DHT22;23374;52.758;6.872;2023-09-12T04:03:14;19.60;1.00
37530;DHT22;23374;52.758;6.872;2023-09-12T04:05:36;19.50;1.00
37530;DHT22;23374;52.758;6.872;2023-09-12T04:07:56;19.40;1.00
37530;DHT22;23374;52.758;6.872;2023-09-12T04:10:21;19.40;1.00
37530;DHT22;23374;52.758;6.872;2023-09-12T04:12:42;19.40;1.00
37530;DHT22;23374;52.758;6.872;2023-09-12T04:15:03;19.40;1.00
37530;DHT22;23374;52.758;6.872;2023-09-12T04:17:23;19.40;1.00
37530;DHT22;23374;52.758;6.872;2023-09-12T04:19:44;19.40;1.00
37530;DHT22;23374;52.758;6.872;2023-09-12T04:22:04;19.40;1.00
37530;DHT22;23374;52.758;6.872;2023-09-12T04:24:24;19.40;1.00
37530;DHT22;23374;52.758;6.872;2023-09-12T04:26:44;19.30;1.00
37530;DHT22;23374;52.758;6.872;2023-09-12T04:29:05;19.30;1.00
37530;DHT22;23374;52.758;6.872;2023-09-12T04:31:25;19.30;1.00
37530;DHT22;23374;52.758;6.872;2023-09-12T04:33:46;19.30;1.00
37530;DHT22;23374;52.758;6.872;2023-09-12T04:36:06;19.40;1.00
37530;DHT22;23374;52.758;6.872;2023-09-12T04:38:26;19.40;1.00
37530;DHT22;23374;52.758;6.872;2023-09-12T04:40:55;19.40;1.00
37530;DHT22;23374;52.758;6.872;2023-09-12T04:43:15;19.40;1.00
37530;DHT22;23374;52.758;6.872;2023-09-12T04:45:35;19.30;1.00
37530;DHT22;23374;52.758;6.872;2023-09-12T04:47:56;19.30;1.00
37530;DHT22;23374;52.758;6.872;2023-09-12T04:50:16;19.30;1.00
37530;DHT22;23374;52.758;6.872;2023-09-12T04:52:38;19.40;1.00
37530;DHT22;23374;52.758;6.872;2023-09-12T04:54:58;19.40;1.00
37530;DHT22;23374;52.758;6.872;2023-09-12T04:57:19;19.40;1.00
37530;DHT22;23374;52.758;6.872;2023-09-12T04:59:39;19.40;1.00
37530;DHT22;23374;52.758;6.872;2023-09-12T05:01:59;19.40;1.00
37530;DHT22;23374;52.758;6.872;2023-09-12T05:04:19;19.40;1.00
37530;DHT22;23374;52.758;6.872;2023-09-12T05:06:40;19.50;1.00
37530;DHT22;23374;52.758;6.872;2023-09-12T05:09:01;19.50;1.00
37530;DHT22;23374;52.758;6.872;2023-09-12T05:11:24;19.50;1.00
37530;DHT22;23374;52.758;6.872;2023-09-12T05:13:44;19.50;1.00
37530;DHT22;23374;52.758;6.872;2023-09-12T05:16:05;19.50;1.00
37530;DHT22;23374;52.758;6.872;2023-09-12T05:18:25;19.50;1.00
37530;DHT22;23374;52.758;6.872;2023-09-12T05:20:45;19.60;1.00
37530;DHT22;23374;52.758;6.872;2023-09-12T05:23:05;19.60;1.00
37530;DHT22;23374;52.758;6.872;2023-09-12T05:25:26;19.60;1.00
37530;DHT22;23374;52.758;6.872;2023-09-12T05:27:50;19.70;1.00
37530;DHT22;23374;52.758;6.872;2023-09-12T05:30:11;19.70;1.00
37530;DHT22;23374;52.758;6.872;2023-09-12T05:32:31;19.70;1.00
37530;DHT22;23374;52.758;6.872;2023-09-12T05:34:52;19.70;1.00
37530;DHT22;23374;52.758;6.872;2023-09-12T05:37:12;19.70;1.00
37530;DHT22;23374;52.758;6.872;2023-09-12T05:39:33;19.70;1.00
37530;DHT22;23374;52.758;6.872;2023-09-12T05:41:54;19.60;1.00
37530;DHT22;23374;52.758;6.872;2023-09-12T05:44:14;19.60;1.00
37530;DHT22;23374;52.758;6.872;2023-09-12T05:46:38;19.60;1.00
37530;DHT22;23374;52.758;6.872;2023-09-12T05:48:58;19.60;1.00
37530;DHT22;23374;52.758;6.872;2023-09-12T05:51:19;19.60;1.00
37530;DHT22;23374;52.758;6.872;2023-09-12T05:53:40;19.60;1.00
37530;DHT22;23374;52.758;6.872;2023-09-12T05:56:00;19.60;1.00
37530;DHT22;23374;52.758;6.872;2023-09-12T05:58:21;19.70;1.00
37530;DHT22;23374;52.758;6.872;2023-09-12T06:00:42;19.70;1.00
37530;DHT22;23374;52.758;6.872;2023-09-12T06:03:03;19.70;1.00
37530;DHT22;23374;52.758;6.872;2023-09-12T06:05:24;19.70;1.00
37530;DHT22;23374;52.758;6.872;2023-09-12T06:07:44;19.70;1.00
37530;DHT22;23374;52.758;6.872;2023-09-12T06:10:08;19.70;1.00
37530;DHT22;23374;52.758;6.872;2023-09-12T06:12:28;19.70;1.00
37530;DHT22;23374;52.758;6.872;2023-09-12T06:14:48;19.70;1.00
37530;DHT22;23374;52.758;6.872;2023-09-12T06:17:09;19.70;1.00
37530;DHT22;23374;52.758;6.872;2023-09-12T06:19:30;19.80;1.00
37530;DHT22;23374;52.758;6.872;2023-09-12T06:21:50;19.80;1.00
37530;DHT22;23374;52.758;6.872;2023-09-12T06:24:17;19.80;1.00
37530;DHT22;23374;52.758;6.872;2023-09-12T06:26:38;19.80;1.00
37530;DHT22;23374;52.758;6.872;2023-09-12T06:28:59;19.90;1.00
37530;DHT22;23374;52.758;6.872;2023-09-12T06:31:19;19.90;1.00
37530;DHT22;23374;52.758;6.872;2023-09-12T06:33:40;19.90;1.00
37530;DHT22;23374;52.758;6.872;2023-09-12T06:36:00;19.90;1.00
37530;DHT22;23374;52.758;6.872;2023-09-12T06:38:22;19.90;1.00
37530;DHT22;23374;52.758;6.872;2023-09-12T06:40:43;19.90;1.00
37530;DHT22;23374;52.758;6.872;2023-09-12T06:43:03;19.80;1.00
37530;DHT22;23374;52.758;6.872;2023-09-12T06:45:24;19.80;1.00
37530;DHT22;23374;52.758;6.872;2023-09-12T06:47:44;19.70;1.00
37530;DHT22;23374;52.758;6.872;2023-09-12T06:50:05;19.70;1.00
37530;DHT22;23374;52.758;6.872;2023-09-12T06:52:26;19.80;1.00
37530;DHT22;23374;52.758;6.872;2023-09-12T06:54:46;19.80;1.00
37530;DHT22;23374;52.758;6.872;2023-09-12T06:57:06;19.70;1.00
37530;DHT22;23374;52.758;6.872;2023-09-12T06:59:26;19.70;1.00
37530;DHT22;23374;52.758;6.872;2023-09-12T07:01:47;19.70;1.00
37530;DHT22;23374;52.758;6.872;2023-09-12T07:04:07;19.70;1.00
37530;DHT22;23374;52.758;6.872;2023-09-12T07:06:28;19.70;1.00
37530;DHT22;23374;52.758;6.872;2023-09-12T07:08:48;19.80;1.00
37530;DHT22;23374;52.758;6.872;2023-09-12T07:11:09;19.80;1.00
37530;DHT22;23374;52.758;6.872;2023-09-12T07:13:29;19.80;1.00
37530;DHT22;23374;52.758;6.872;2023-09-12T07:15:52;19.80;1.00
37530;DHT22;23374;52.758;6.872;2023-09-12T07:18:13;19.80;1.00
37530;DHT22;23374;52.758;6.872;2023-09-12T07:20:35;19.80;1.00
37530;DHT22;23374;52.758;6.872;2023-09-12T07:22:55;19.70;1.00
37530;DHT22;23374;52.758;6.872;2023-09-12T07:25:17;19.70;1.00
37530;DHT22;23374;52.758;6.872;2023-09-12T07:27:39;19.70;1.00
37530;DHT22;23374;52.758;6.872;2023-09-12T07:30:00;19.70;1.00
37530;DHT22;23374;52.758;6.872;2023-09-12T07:32:20;19.70;1.00
37530;DHT22;23374;52.758;6.872;2023-09-12T07:34:41;19.70;1.00
37530;DHT22;23374;52.758;6.872;2023-09-12T07:37:05;19.70;1.00
37530;DHT22;23374;52.758;6.872;2023-09-12T07:39:26;19.70;1.00
37530;DHT22;23374;52.758;6.872;2023-09-12T07:41:46;19.80;1.00
37530;DHT22;23374;52.758;6.872;2023-09-12T07:44:07;19.80;1.00
37530;DHT22;23374;52.758;6.872;2023-09-12T07:46:31;19.80;1.00
37530;DHT22;23374;52.758;6.872;2023-09-12T07:48:51;19.80;1.00
37530;DHT22;23374;52.758;6.872;2023-09-12T07:51:16;19.80;1.00
37530;DHT22;23374;52.758;6.872;2023-09-12T07:53:40;19.80;1.00
37530;DHT22;23374;52.758;6.872;2023-09-12T07:56:01;19.80;1.00
37530;DHT22;23374;52.758;6.872;2023-09-12T07:58:22;19.90;1.00
37530;DHT22;23374;52.758;6.872;2023-09-12T08:00:42;19.90;1.00
37530;DHT22;23374;52.758;6.872;2023-09-12T08:03:04;20.00;1.00
37530;DHT22;23374;52.758;6.872;2023-09-12T08:05:24;20.10;1.00
37530;DHT22;23374;52.758;6.872;2023-09-12T08:07:44;20.20;1.00
37530;DHT22;23374;52.758;6.872;2023-09-12T08:10:06;20.20;1.00
37530;DHT22;23374;52.758;6.872;2023-09-12T08:12:28;20.30;1.00
37530;DHT22;23374;52.758;6.872;2023-09-12T08:14:48;20.30;1.00
37530;DHT22;23374;52.758;6.872;2023-09-12T08:17:09;20.40;1.00
37530;DHT22;23374;52.758;6.872;2023-09-12T08:19:29;20.50;1.00
37530;DHT22;23374;52.758;6.872;2023-09-12T08:21:50;20.50;1.00
37530;DHT22;23374;52.758;6.872;2023-09-12T08:24:10;20.60;1.00
37530;DHT22;23374;52.758;6.872;2023-09-12T08:26:30;20.60;99.90
37530;DHT22;23374;52.758;6.872;2023-09-12T08:28:51;20.70;1.00
37530;DHT22;23374;52.758;6.872;2023-09-12T08:31:12;20.80;1.00
37530;DHT22;23374;52.758;6.872;2023-09-12T08:33:32;20.90;99.90
37530;DHT22;23374;52.758;6.872;2023-09-12T08:35:53;20.90;99.90
37530;DHT22;23374;52.758;6.872;2023-09-12T08:38:13;21.00;99.90
37530;DHT22;23374;52.758;6.872;2023-09-12T08:40:34;21.00;99.90
37530;DHT22;23374;52.758;6.872;2023-09-12T08:42:57;21.00;99.90
37530;DHT22;23374;52.758;6.872;2023-09-12T08:45:19;21.10;99.90
37530;DHT22;23374;52.758;6.872;2023-09-12T08:47:42;21.10;99.90
37530;DHT22;23374;52.758;6.872;2023-09-12T08:50:03;21.10;99.90
37530;DHT22;23374;52.758;6.872;2023-09-12T08:52:24;21.10;99.90
37530;DHT22;23374;52.758;6.872;2023-09-12T08:54:45;21.10;99.90
37530;DHT22;23374;52.758;6.872;2023-09-12T08:57:06;21.00;99.90
37530;DHT22;23374;52.758;6.872;2023-09-12T08:59:27;21.00;99.90
37530;DHT22;23374;52.758;6.872;2023-09-12T09:01:48;21.10;99.90
37530;DHT22;23374;52.758;6.872;2023-09-12T09:04:12;21.10;99.90
37530;DHT22;23374;52.758;6.872;2023-09-12T09:06:34;21.20;99.90
37530;DHT22;23374;52.758;6.872;2023-09-12T09:08:58;21.20;99.90
37530;DHT22;23374;52.758;6.872;2023-09-12T09:11:19;21.30;99.90
37530;DHT22;23374;52.758;6.872;2023-09-12T09:13:40;21.20;99.90
37530;DHT22;23374;52.758;6.872;2023-09-12T09:17:01;21.30;99.90
37530;DHT22;23374;52.758;6.872;2023-09-12T09:19:22;21.20;45.50
37530;DHT22;23374;52.758;6.872;2023-09-12T09:21:42;21.30;99.90
37530;DHT22;23374;52.758;6.872;2023-09-12T09:24:12;21.30;99.90
37530;DHT22;23374;52.758;6.872;2023-09-12T09:26:48;21.40;45.20
37530;DHT22;23374;52.758;6.872;2023-09-12T09:29:14;21.30;1.00
37530;DHT22;23374;52.758;6.872;2023-09-12T09:31:35;21.30;39.00
37530;DHT22;23374;52.758;6.872;2023-09-12T09:34:00;21.20;57.50
37530;DHT22;23374;52.758;6.872;2023-09-12T09:36:21;21.20;33.80
37530;DHT22;23374;52.758;6.872;2023-09-12T09:38:43;21.20;50.40
37530;DHT22;23374;52.758;6.872;2023-09-12T09:41:05;21.30;74.90
37530;DHT22;23374;52.758;6.872;2023-09-12T09:43:26;21.40;94.30
37530;DHT22;23374;52.758;6.872;2023-09-12T09:45:47;21.40;68.20
37530;DHT22;23374;52.758;6.872;2023-09-12T09:48:07;21.40;23.80
37530;DHT22;23374;52.758;6.872;2023-09-12T09:50:28;21.50;16.30
37530;DHT22;23374;52.758;6.872;2023-09-12T09:52:55;21.60;1.00
37530;DHT22;23374;52.758;6.872;2023-09-12T09:55:19;21.60;1.00
37530;DHT22;23374;52.758;6.872;2023-09-12T09:57:39;21.70;1.00
37530;DHT22;23374;52.758;6.872;2023-09-12T09:59:59;21.90;1.00
37530;DHT22;23374;52.758;6.872;2023-09-12T10:02:22;21.90;1.00
37530;DHT22;23374;52.758;6.872;2023-09-12T10:04:46;22.00;1.00
37530;DHT22;23374;52.758;6.872;2023-09-12T10:07:07;22.10;1.00
37530;DHT22;23374;52.758;6.872;2023-09-12T10:09:28;22.10;1.00
37530;DHT22;23374;52.758;6.872;2023-09-12T10:11:51;22.20;1.00
37530;DHT22;23374;52.758;6.872;2023-09-12T10:14:15;22.20;1.00
37530;DHT22;23374;52.758;6.872;2023-09-12T10:16:42;22.20;1.00
37530;DHT22;23374;52.758;6.872;2023-09-12T10:19:18;22.30;1.00
37530;DHT22;23374;52.758;6.872;2023-09-12T10:22:11;22.30;1.00
37530;DHT22;23374;52.758;6.872;2023-09-12T10:24:33;22.30;1.00
37530;DHT22;23374;52.758;6.872;2023-09-12T10:26:56;22.40;1.00
37530;DHT22;23374;52.758;6.872;2023-09-12T10:29:17;22.50;1.00
37530;DHT22;23374;52.758;6.872;2023-09-12T10:31:37;22.60;1.00
37530;DHT22;23374;52.758;6.872;2023-09-12T10:33:58;22.60;1.00
37530;DHT22;23374;52.758;6.872;2023-09-12T10:36:20;22.70;1.00
37530;DHT22;23374;52.758;6.872;2023-09-12T10:38:45;22.80;1.00
37530;DHT22;23374;52.758;6.872;2023-09-12T10:41:08;22.80;1.00
37530;DHT22;23374;52.758;6.872;2023-09-12T10:43:30;22.90;1.00
37530;DHT22;23374;52.758;6.872;2023-09-12T10:45:53;22.90;1.00
37530;DHT22;23374;52.758;6.872;2023-09-12T10:48:15;22.90;1.00
37530;DHT22;23374;52.758;6.872;2023-09-12T10:50:35;23.00;1.00
37530;DHT22;23374;52.758;6.872;2023-09-12T10:53:09;23.00;1.00
37530;DHT22;23374;52.758;6.872;2023-09-12T10:55:30;23.10;1.00
37530;DHT22;23374;52.758;6.872;2023-09-12T10:58:09;23.10;1.00
37530;DHT22;23374;52.758;6.872;2023-09-12T11:00:33;23.10;1.00
37530;DHT22;23374;52.758;6.872;2023-09-12T11:02:54;23.10;1.00
37530;DHT22;23374;52.758;6.872;2023-09-12T11:09:21;23.20;1.00
37530;DHT22;23374;52.758;6.872;2023-09-12T11:11:46;23.00;99.90
37530;DHT22;23374;52.758;6.872;2023-09-12T11:14:07;23.10;1.00
37530;DHT22;23374;52.758;6.872;2023-09-12T11:16:28;23.10;1.00
37530;DHT22;23374;52.758;6.872;2023-09-12T11:19:20;23.10;1.00
37530;DHT22;23374;52.758;6.872;2023-09-12T11:21:50;23.10;1.00
37530;DHT22;23374;52.758;6.872;2023-09-12T11:24:12;23.20;1.00
37530;DHT22;23374;52.758;6.872;2023-09-12T11:26:32;23.20;1.00
37530;DHT22;23374;52.758;6.872;2023-09-12T11:28:53;23.30;1.00
37530;DHT22;23374;52.758;6.872;2023-09-12T11:31:27;23.40;1.00
37530;DHT22;23374;52.758;6.872;2023-09-12T11:33:47;23.50;1.00
37530;DHT22;23374;52.758;6.872;2023-09-12T11:36:13;23.60;1.00
37530;DHT22;23374;52.758;6.872;2023-09-12T11:38:34;23.70;1.00
37530;DHT22;23374;52.758;6.872;2023-09-12T11:40:55;23.70;1.00
37530;DHT22;23374;52.758;6.872;2023-09-12T11:43:24;23.70;1.00
37530;DHT22;23374;52.758;6.872;2023-09-12T11:45:45;23.80;99.90
37530;DHT22;23374;52.758;6.872;2023-09-12T11:48:06;23.90;99.90
37530;DHT22;23374;52.758;6.872;2023-09-12T11:50:35;23.90;99.90
37530;DHT22;23374;52.758;6.872;2023-09-12T11:53:11;23.80;99.90
37530;DHT22;23374;52.758;6.872;2023-09-12T11:55:47;23.80;99.90
37530;DHT22;23374;52.758;6.872;2023-09-12T11:58:09;23.90;99.90
37530;DHT22;23374;52.758;6.872;2023-09-12T12:00:30;23.90;99.90
37530;DHT22;23374;52.758;6.872;2023-09-12T12:02:51;23.90;99.90
37530;DHT22;23374;52.758;6.872;2023-09-12T12:05:12;23.90;99.90
37530;DHT22;23374;52.758;6.872;2023-09-12T12:07:33;24.00;99.90
37530;DHT22;23374;52.758;6.872;2023-09-12T12:09:53;24.00;99.90
37530;DHT22;23374;52.758;6.872;2023-09-12T12:12:15;24.10;99.90
37530;DHT22;23374;52.758;6.872;2023-09-12T12:14:35;24.20;99.90
37530;DHT22;23374;52.758;6.872;2023-09-12T12:16:56;24.30;99.90
37530;DHT22;23374;52.758;6.872;2023-09-12T12:19:16;24.40;99.90
37530;DHT22;23374;52.758;6.872;2023-09-12T12:21:38;24.40;99.90
37530;DHT22;23374;52.758;6.872;2023-09-12T12:24:02;24.30;99.90
37530;DHT22;23374;52.758;6.872;2023-09-12T12:26:25;24.30;99.90
37530;DHT22;23374;52.758;6.872;2023-09-12T12:28:46;24.30;99.90
37530;DHT22;23374;52.758;6.872;2023-09-12T12:31:06;24.30;99.90
37530;DHT22;23374;52.758;6.872;2023-09-12T12:33:27;24.30;99.90
37530;DHT22;23374;52.758;6.872;2023-09-12T12:35:48;24.40;99.90
37530;DHT22;23374;52.758;6.872;2023-09-12T12:38:12;24.40;99.90
37530;DHT22;23374;52.758;6.872;2023-09-12T12:40:38;24.40;99.90
37530;DHT22;23374;52.758;6.872;2023-09-12T12:43:00;24.40;99.90
37530;DHT22;23374;52.758;6.872;2023-09-12T12:45:24;24.50;99.90
37530;DHT22;23374;52.758;6.872;2023-09-12T12:47:45;24.70;99.90
37530;DHT22;23374;52.758;6.872;2023-09-12T12:50:13;24.80;99.90
37530;DHT22;23374;52.758;6.872;2023-09-12T12:52:35;24.80;99.90
37530;DHT22;23374;52.758;6.872;2023-09-12T12:55:10;24.80;99.90
37530;DHT22;23374;52.758;6.872;2023-09-12T12:57:30;24.70;99.90
37530;DHT22;23374;52.758;6.872;2023-09-12T12:59:51;24.70;99.90
37530;DHT22;23374;52.758;6.872;2023-09-12T13:02:11;24.70;99.90
37530;DHT22;23374;52.758;6.872;2023-09-12T13:04:38;24.80;99.90
37530;DHT22;23374;52.758;6.872;2023-09-12T13:06:58;24.80;46.80
37530;DHT22;23374;52.758;6.872;2023-09-12T13:09:18;24.90;99.90
37530;DHT22;23374;52.758;6.872;2023-09-12T13:11:38;25.00;99.90
37530;DHT22;23374;52.758;6.872;2023-09-12T13:13:59;25.10;99.90
37530;DHT22;23374;52.758;6.872;2023-09-12T13:16:20;25.10;99.90
37530;DHT22;23374;52.758;6.872;2023-09-12T13:18:41;25.10;99.90
37530;DHT22;23374;52.758;6.872;2023-09-12T13:21:01;25.10;99.90
37530;DHT22;23374;52.758;6.872;2023-09-12T13:23:23;25.10;99.90
37530;DHT22;23374;52.758;6.872;2023-09-12T13:25:44;25.20;99.90
37530;DHT22;23374;52.758;6.872;2023-09-12T13:28:05;25.20;42.80
37530;DHT22;23374;52.758;6.872;2023-09-12T13:30:26;25.30;92.80
37530;DHT22;23374;52.758;6.872;2023-09-12T13:32:46;25.40;99.90
37530;DHT22;23374;52.758;6.872;2023-09-12T13:35:07;25.50;97.20
37530;DHT22;23374;52.758;6.872;2023-09-12T13:37:28;25.60;94.50
37530;DHT22;23374;52.758;6.872;2023-09-12T13:39:49;25.70;99.90
37530;DHT22;23374;52.758;6.872;2023-09-12T13:42:10;25.70;57.50
37530;DHT22;23374;52.758;6.872;2023-09-12T13:44:31;25.80;71.80
37530;DHT22;23374;52.758;6.872;2023-09-12T13:46:51;25.90;2.30
37530;DHT22;23374;52.758;6.872;2023-09-12T13:49:11;26.00;1.00
37530;DHT22;23374;52.758;6.872;2023-09-12T13:51:31;26.00;1.00
37530;DHT22;23374;52.758;6.872;2023-09-12T13:53:52;25.90;1.00
37530;DHT22;23374;52.758;6.872;2023-09-12T13:56:12;25.90;1.00
37530;DHT22;23374;52.758;6.872;2023-09-12T13:58:33;26.00;1.00
37530;DHT22;23374;52.758;6.872;2023-09-12T14:00:53;26.10;1.00
37530;DHT22;23374;52.758;6.872;2023-09-12T14:03:13;26.10;1.00
37530;DHT22;23374;52.758;6.872;2023-09-12T14:05:34;26.10;1.00
37530;DHT22;23374;52.758;6.872;2023-09-12T14:07:54;26.10;1.00
37530;DHT22;23374;52.758;6.872;2023-09-12T14:10:15;26.20;1.00
37530;DHT22;23374;52.758;6.872;2023-09-12T14:12:36;26.20;1.00
37530;DHT22;23374;52.758;6.872;2023-09-12T14:14:56;26.20;1.00
37530;DHT22;23374;52.758;6.872;2023-09-12T14:17:16;26.30;1.00
37530;DHT22;23374;52.758;6.872;2023-09-12T14:19:37;26.30;1.00
37530;DHT22;23374;52.758;6.872;2023-09-12T14:21:57;26.20;1.00
37530;DHT22;23374;52.758;6.872;2023-09-12T14:24:17;26.20;1.00
37530;DHT22;23374;52.758;6.872;2023-09-12T14:26:38;26.10;1.00
37530;DHT22;23374;52.758;6.872;2023-09-12T14:28:58;26.00;1.00
37530;DHT22;23374;52.758;6.872;2023-09-12T14:31:18;26.00;1.00
37530;DHT22;23374;52.758;6.872;2023-09-12T14:33:40;26.00;1.00
37530;DHT22;23374;52.758;6.872;2023-09-12T14:36:00;25.90;99.90
37530;DHT22;23374;52.758;6.872;2023-09-12T14:38:21;25.80;99.90
37530;DHT22;23374;52.758;6.872;2023-09-12T14:40:42;25.70;1.00
37530;DHT22;23374;52.758;6.872;2023-09-12T14:43:03;25.70;1.00
37530;DHT22;23374;52.758;6.872;2023-09-12T14:45:23;25.60;1.00
37530;DHT22;23374;52.758;6.872;2023-09-12T14:47:45;25.50;1.00
37530;DHT22;23374;52.758;6.872;2023-09-12T14:50:06;25.40;1.00
37530;DHT22;23374;52.758;6.872;2023-09-12T14:52:27;25.40;1.00
37530;DHT22;23374;52.758;6.872;2023-09-12T14:54:47;25.40;1.00
37530;DHT22;23374;52.758;6.872;2023-09-12T14:57:07;25.40;1.00
37530;DHT22;23374;52.758;6.872;2023-09-12T14:59:27;25.40;1.00
37530;DHT22;23374;52.758;6.872;2023-09-12T15:01:48;25.50;1.00
37530;DHT22;23374;52.758;6.872;2023-09-12T15:04:10;25.60;1.00
37530;DHT22;23374;52.758;6.872;2023-09-12T15:06:31;25.80;1.00
37530;DHT22;23374;52.758;6.872;2023-09-12T15:08:53;25.80;1.00
37530;DHT22;23374;52.758;6.872;2023-09-12T15:11:14;25.80;99.90
37530;DHT22;23374;52.758;6.872;2023-09-12T15:13:34;25.80;1.00
37530;DHT22;23374;52.758;6.872;2023-09-12T15:15:54;25.80;1.00
37530;DHT22;23374;52.758;6.872;2023-09-12T15:18:14;25.90;1.00
37530;DHT22;23374;52.758;6.872;2023-09-12T15:20:35;25.90;1.00